Datum - Zeit
Döttingen
TemperaturTaupunktFeuchteSolar Wind aus
Richtung
Windböenaus
Richtung
Luftdruck
(QFF)
RegenRegen
Stärke
23.07.2018 - 00.00Uhr17.2 °C15.2 °C88 %0.0 W/m²0.8 km/hOst-NO1.8 km/hOst-NO1015.3 hPa0.0 mm0.0 mm/h
23.07.2018 - 00.05Uhr17.2 °C15.2 °C88 %0.0 W/m²0.0 km/hOst-NO0.0 km/hNorden1015.3 hPa0.0 mm0.0 mm/h
23.07.2018 - 00.10Uhr17.2 °C15.2 °C88 %0.0 W/m²0.6 km/hOst-NO1.8 km/hOst-NO1015.3 hPa0.0 mm0.0 mm/h
23.07.2018 - 00.15Uhr17.1 °C15.1 °C88 %0.0 W/m²0.5 km/hOst-NO1.8 km/hOst-NO1015.3 hPa0.0 mm0.0 mm/h
23.07.2018 - 00.20Uhr16.9 °C14.9 °C88 %0.0 W/m²0.3 km/hOst-NO1.8 km/hOst-NO1015.3 hPa0.0 mm0.0 mm/h
23.07.2018 - 00.25Uhr16.8 °C14.8 °C88 %0.0 W/m²0.0 km/hOst-NO0.0 km/hNorden1015.2 hPa0.0 mm0.0 mm/h
23.07.2018 - 00.30Uhr16.9 °C14.9 °C88 %0.0 W/m²0.4 km/hOst-NO1.8 km/hOst-NO1015.2 hPa0.0 mm0.0 mm/h
23.07.2018 - 00.35Uhr16.9 °C14.9 °C88 %0.0 W/m²0.0 km/hOst-NO0.0 km/hNorden1015.2 hPa0.0 mm0.0 mm/h
23.07.2018 - 00.40Uhr16.9 °C14.9 °C88 %0.0 W/m²0.0 km/hOst-NO0.0 km/hNorden1015.2 hPa0.0 mm0.0 mm/h
23.07.2018 - 00.45Uhr16.9 °C14.9 °C88 %0.0 W/m²0.0 km/hOst-NO0.0 km/hNorden1015.2 hPa0.0 mm0.0 mm/h
23.07.2018 - 00.50Uhr16.9 °C14.9 °C88 %0.0 W/m²0.0 km/hOst-NO0.0 km/hNorden1015.2 hPa0.0 mm0.0 mm/h
23.07.2018 - 00.55Uhr16.9 °C14.9 °C88 %0.0 W/m²0.0 km/hOst-NO0.0 km/hNorden1015.3 hPa0.0 mm0.0 mm/h
23.07.2018 - 01.00Uhr16.8 °C14.8 °C88 %0.0 W/m²0.3 km/hOst-NO1.8 km/hOst-NO1015.2 hPa0.0 mm0.0 mm/h
23.07.2018 - 01.05Uhr16.8 °C14.8 °C88 %0.0 W/m²0.9 km/hOst-NO1.8 km/hOst-NO1015.2 hPa0.0 mm0.0 mm/h
23.07.2018 - 01.10Uhr16.7 °C14.7 °C88 %0.0 W/m²0.8 km/hOst-NO1.8 km/hOst-NO1015.2 hPa0.0 mm0.0 mm/h
23.07.2018 - 01.15Uhr16.7 °C14.7 °C88 %0.0 W/m²0.7 km/hOst-NO1.8 km/hOst-NO1015.2 hPa0.0 mm0.0 mm/h
23.07.2018 - 01.20Uhr16.7 °C14.7 °C88 %0.0 W/m²0.0 km/hOst-NO0.0 km/hNorden1015.3 hPa0.0 mm0.0 mm/h
23.07.2018 - 01.25Uhr16.7 °C14.7 °C88 %0.0 W/m²0.0 km/hOst-NO0.0 km/hNorden1015.3 hPa0.0 mm0.0 mm/h
23.07.2018 - 01.30Uhr16.8 °C14.8 °C88 %0.0 W/m²0.0 km/hOst-NO0.0 km/hNorden1015.3 hPa0.0 mm0.0 mm/h
23.07.2018 - 01.35Uhr16.8 °C14.8 °C88 %0.0 W/m²0.0 km/hOst-NO0.0 km/hNorden1015.3 hPa0.0 mm0.0 mm/h
23.07.2018 - 01.40Uhr16.8 °C14.8 °C88 %0.0 W/m²0.9 km/hOst-NO1.8 km/hOst-NO1015.3 hPa0.0 mm0.0 mm/h
23.07.2018 - 01.45Uhr16.8 °C14.8 °C88 %0.0 W/m²0.8 km/hOst-NO4.0 km/hOst-NO1015.3 hPa0.0 mm0.0 mm/h
23.07.2018 - 01.50Uhr16.8 °C14.8 °C88 %0.0 W/m²0.5 km/hOst-NO1.8 km/hOst-NO1015.3 hPa0.0 mm0.0 mm/h
23.07.2018 - 01.55Uhr16.7 °C14.7 °C88 %0.0 W/m²0.5 km/hOst-NO1.8 km/hOst-NO1015.3 hPa0.0 mm0.0 mm/h
23.07.2018 - 02.00Uhr16.6 °C14.6 °C88 %0.0 W/m²0.7 km/hOst-NO1.8 km/hOst-NO1015.3 hPa0.0 mm0.0 mm/h
23.07.2018 - 02.05Uhr16.6 °C14.6 °C88 %0.0 W/m²0.0 km/hOst-NO0.0 km/hNorden1015.4 hPa0.0 mm0.0 mm/h
23.07.2018 - 02.10Uhr16.7 °C14.7 °C88 %0.0 W/m²0.0 km/hOst-NO0.0 km/hNorden1015.4 hPa0.0 mm0.0 mm/h
23.07.2018 - 02.15Uhr16.7 °C14.7 °C88 %0.0 W/m²0.0 km/hOst-NO0.0 km/hNorden1015.4 hPa0.0 mm0.0 mm/h
23.07.2018 - 02.20Uhr16.8 °C14.8 °C88 %0.0 W/m²0.0 km/hOst-NO0.0 km/hNorden1015.4 hPa0.0 mm0.0 mm/h
23.07.2018 - 02.25Uhr16.8 °C14.8 °C88 %0.0 W/m²0.3 km/hOst-NO1.8 km/hOst-NO1015.3 hPa0.0 mm0.0 mm/h
23.07.2018 - 02.30Uhr16.7 °C14.7 °C88 %0.0 W/m²0.0 km/hOst-NO0.0 km/hNorden1015.3 hPa0.0 mm0.0 mm/h
23.07.2018 - 02.35Uhr16.8 °C14.8 °C88 %0.0 W/m²0.0 km/hOst-NO0.0 km/hNorden1015.2 hPa0.0 mm0.0 mm/h
23.07.2018 - 02.40Uhr16.7 °C14.7 °C88 %0.0 W/m²0.0 km/hOst-NO0.0 km/hNorden1015.1 hPa0.0 mm0.0 mm/h
23.07.2018 - 02.45Uhr16.7 °C14.7 °C88 %0.0 W/m²0.0 km/hOst-NO0.0 km/hNorden1015.1 hPa0.0 mm0.0 mm/h
23.07.2018 - 02.50Uhr16.7 °C14.7 °C88 %0.0 W/m²0.0 km/hOst-NO0.0 km/hNorden1015.1 hPa0.0 mm0.0 mm/h
23.07.2018 - 02.55Uhr16.8 °C14.8 °C88 %0.0 W/m²0.0 km/hOst-NO0.0 km/hNorden1015.1 hPa0.0 mm0.0 mm/h
23.07.2018 - 03.00Uhr16.7 °C14.7 °C88 %0.0 W/m²0.0 km/hOst-NO0.0 km/hNorden1015.0 hPa0.0 mm0.0 mm/h
23.07.2018 - 03.05Uhr16.7 °C14.7 °C88 %0.0 W/m²0.0 km/hOst-NO0.0 km/hNorden1015.0 hPa0.0 mm0.0 mm/h
23.07.2018 - 03.10Uhr16.8 °C14.8 °C88 %0.0 W/m²0.8 km/hOst-NO1.8 km/hOst-NO1015.0 hPa0.0 mm0.0 mm/h
23.07.2018 - 03.15Uhr16.7 °C14.7 °C88 %0.0 W/m²0.7 km/hOst-NO1.8 km/hOst-NO1015.0 hPa0.0 mm0.0 mm/h
23.07.2018 - 03.20Uhr16.7 °C14.7 °C88 %0.0 W/m²0.3 km/hOst-NO1.8 km/hOst-NO1015.0 hPa0.0 mm0.0 mm/h
23.07.2018 - 03.25Uhr16.7 °C14.7 °C88 %0.0 W/m²0.0 km/hOst-NO0.0 km/hNorden1015.0 hPa0.0 mm0.0 mm/h
23.07.2018 - 03.30Uhr16.7 °C14.7 °C88 %0.0 W/m²0.0 km/hOst-NO0.0 km/hNorden1015.0 hPa0.0 mm0.0 mm/h
23.07.2018 - 03.35Uhr16.7 °C14.7 °C88 %0.0 W/m²0.0 km/hOst-NO0.0 km/hNorden1015.0 hPa0.0 mm0.0 mm/h
23.07.2018 - 03.40Uhr16.7 °C14.7 °C88 %0.0 W/m²0.0 km/hOst-NO0.0 km/hNorden1015.1 hPa0.0 mm0.0 mm/h
23.07.2018 - 03.45Uhr16.6 °C14.7 °C88 %0.0 W/m²0.0 km/hOst-NO0.0 km/hNorden1015.1 hPa0.0 mm0.0 mm/h
23.07.2018 - 03.50Uhr16.6 °C14.6 °C88 %0.0 W/m²0.0 km/hOst-NO0.0 km/hNorden1015.1 hPa0.0 mm0.0 mm/h
23.07.2018 - 03.55Uhr16.6 °C14.6 °C88 %0.0 W/m²0.0 km/hOst-NO0.0 km/hNorden1015.1 hPa0.0 mm0.0 mm/h
23.07.2018 - 04.00Uhr16.7 °C14.7 °C88 %0.0 W/m²0.0 km/hOst-NO0.0 km/hNorden1015.1 hPa0.0 mm0.0 mm/h
23.07.2018 - 04.05Uhr16.7 °C14.7 °C88 %0.0 W/m²0.3 km/hOst-NO1.8 km/hOst-NO1015.1 hPa0.0 mm0.0 mm/h
23.07.2018 - 04.10Uhr16.6 °C14.6 °C88 %0.0 W/m²0.0 km/hOst-NO0.0 km/hNorden1015.1 hPa0.0 mm0.0 mm/h
23.07.2018 - 04.15Uhr16.7 °C14.7 °C88 %0.0 W/m²0.0 km/hOst-NO0.0 km/hNorden1015.2 hPa0.0 mm0.0 mm/h
23.07.2018 - 04.20Uhr16.7 °C14.7 °C88 %0.0 W/m²0.0 km/hOst-NO0.0 km/hNorden1015.1 hPa0.0 mm0.0 mm/h
23.07.2018 - 04.25Uhr16.7 °C14.7 °C88 %0.0 W/m²0.0 km/hOst-NO0.0 km/hNorden1015.1 hPa0.0 mm0.0 mm/h
23.07.2018 - 04.30Uhr16.7 °C14.7 °C88 %0.0 W/m²0.0 km/hOst-NO0.0 km/hNorden1015.1 hPa0.0 mm0.0 mm/h
23.07.2018 - 04.35Uhr16.7 °C14.7 °C88 %0.0 W/m²0.0 km/hOst-NO0.0 km/hNorden1015.1 hPa0.0 mm0.0 mm/h
23.07.2018 - 04.40Uhr16.7 °C14.7 °C88 %0.0 W/m²0.0 km/hOst-NO0.0 km/hNorden1015.1 hPa0.0 mm0.0 mm/h
23.07.2018 - 04.45Uhr16.6 °C14.6 °C88 %0.0 W/m²1.2 km/hOst-NO4.0 km/hOst-NO1015.1 hPa0.0 mm0.0 mm/h
23.07.2018 - 04.50Uhr16.5 °C14.7 °C89 %0.0 W/m²2.2 km/hOst-NO4.0 km/hOst-NO1015.1 hPa0.0 mm0.0 mm/h
23.07.2018 - 04.55Uhr16.4 °C14.6 °C89 %0.0 W/m²1.4 km/hOst-NO4.0 km/hOst-NO1015.1 hPa0.0 mm0.0 mm/h
23.07.2018 - 05.00Uhr16.4 °C14.6 °C89 %0.0 W/m²1.6 km/hOst-NO4.0 km/hOst-NO1015.1 hPa0.0 mm0.0 mm/h
23.07.2018 - 05.05Uhr16.5 °C14.7 °C89 %0.0 W/m²1.8 km/hOst-NO4.0 km/hOst-NO1015.1 hPa0.0 mm0.0 mm/h
23.07.2018 - 05.10Uhr16.6 °C14.6 °C88 %0.0 W/m²1.0 km/hOst-NO4.0 km/hOst-NO1015.1 hPa0.0 mm0.0 mm/h
23.07.2018 - 05.15Uhr16.6 °C14.8 °C89 %0.0 W/m²0.7 km/hOst-NO1.8 km/hOst-NO1015.2 hPa0.0 mm0.0 mm/h
23.07.2018 - 05.20Uhr16.6 °C14.7 °C89 %0.0 W/m²0.0 km/hOst-NO0.0 km/hNorden1015.2 hPa0.0 mm0.0 mm/h
23.07.2018 - 05.25Uhr16.6 °C14.6 °C88 %0.0 W/m²0.7 km/hOst-NO1.8 km/hOst-NO1015.3 hPa0.0 mm0.0 mm/h
23.07.2018 - 05.30Uhr16.6 °C14.7 °C88 %0.0 W/m²0.6 km/hOst-NO1.8 km/hOst-NO1015.3 hPa0.0 mm0.0 mm/h
23.07.2018 - 05.35Uhr16.7 °C14.7 °C88 %0.0 W/m²0.5 km/hOst-NO1.8 km/hOst-NO1015.4 hPa0.0 mm0.0 mm/h
23.07.2018 - 05.40Uhr16.7 °C14.7 °C88 %0.0 W/m²0.4 km/hOst-NO1.8 km/hOst-NO1015.4 hPa0.0 mm0.0 mm/h
23.07.2018 - 05.45Uhr16.6 °C14.6 °C88 %0.0 W/m²0.2 km/hOst-NO1.8 km/hOst-NO1015.5 hPa0.0 mm0.0 mm/h
23.07.2018 - 05.50Uhr16.6 °C14.6 °C88 %0.0 W/m²0.0 km/hOst-NO0.0 km/hNorden1015.5 hPa0.0 mm0.0 mm/h
23.07.2018 - 05.55Uhr16.6 °C14.6 °C88 %0.0 W/m²0.0 km/hOst-NO0.0 km/hNorden1015.5 hPa0.0 mm0.0 mm/h
23.07.2018 - 06.00Uhr16.6 °C14.6 °C88 %0.0 W/m²0.0 km/hOst-NO0.0 km/hNorden1015.6 hPa0.0 mm0.0 mm/h
23.07.2018 - 06.05Uhr16.6 °C14.6 °C88 %5.0 W/m²0.4 km/hOst-NO1.8 km/hOst-NO1015.6 hPa0.0 mm0.0 mm/h
23.07.2018 - 06.10Uhr16.7 °C14.7 °C88 %7.0 W/m²0.0 km/hOst-NO0.0 km/hNorden1015.6 hPa0.0 mm0.0 mm/h
23.07.2018 - 06.15Uhr16.7 °C14.7 °C88 %7.0 W/m²0.3 km/hOst-NO1.8 km/hOst-NO1015.7 hPa0.0 mm0.0 mm/h
23.07.2018 - 06.20Uhr16.7 °C14.7 °C88 %9.0 W/m²0.0 km/hOst-NO0.0 km/hNorden1015.7 hPa0.0 mm0.0 mm/h
23.07.2018 - 06.25Uhr16.7 °C14.7 °C88 %12.0 W/m²0.3 km/hOst-NO1.8 km/hOst-NO1015.7 hPa0.0 mm0.0 mm/h
23.07.2018 - 06.30Uhr16.7 °C14.7 °C88 %14.0 W/m²0.3 km/hOst-NO1.8 km/hOst-NO1015.7 hPa0.0 mm0.0 mm/h
23.07.2018 - 06.35Uhr16.7 °C14.7 °C88 %16.0 W/m²0.8 km/hOst-NO1.8 km/hOst-NO1015.7 hPa0.0 mm0.0 mm/h
23.07.2018 - 06.40Uhr16.7 °C14.7 °C88 %16.0 W/m²0.2 km/hOst-NO1.8 km/hOst-NO1015.8 hPa0.0 mm0.0 mm/h
23.07.2018 - 06.45Uhr16.8 °C14.8 °C88 %21.0 W/m²0.8 km/hOst-NO1.8 km/hOst-NO1015.9 hPa0.0 mm0.0 mm/h
23.07.2018 - 06.50Uhr16.8 °C14.8 °C88 %25.0 W/m²0.0 km/hOst-NO0.0 km/hNorden1015.9 hPa0.0 mm0.0 mm/h
23.07.2018 - 06.55Uhr16.8 °C15.0 °C89 %28.0 W/m²0.0 km/hOst-NO0.0 km/hNorden1016.0 hPa0.0 mm0.0 mm/h
23.07.2018 - 07.00Uhr16.8 °C15.0 °C89 %33.0 W/m²0.0 km/hOst-NO0.0 km/hNorden1016.0 hPa0.0 mm0.0 mm/h
23.07.2018 - 07.05Uhr16.8 °C15.0 °C89 %42.0 W/m²0.0 km/hOst-NO0.0 km/hNorden1016.0 hPa0.0 mm0.0 mm/h
23.07.2018 - 07.10Uhr16.9 °C15.0 °C88 %44.0 W/m²0.0 km/hOst-NO0.0 km/hNorden1016.0 hPa0.0 mm0.0 mm/h
23.07.2018 - 07.15Uhr17.2 °C15.2 °C88 %51.0 W/m²0.3 km/hOst-NO1.8 km/hOst-NO1016.0 hPa0.0 mm0.0 mm/h
23.07.2018 - 07.20Uhr17.2 °C15.2 °C88 %51.0 W/m²0.0 km/hOst-NO0.0 km/hNorden1016.0 hPa0.0 mm0.0 mm/h
23.07.2018 - 07.25Uhr17.1 °C15.1 °C88 %53.0 W/m²0.0 km/hOst-NO0.0 km/hNorden1016.0 hPa0.0 mm0.0 mm/h
23.07.2018 - 07.30Uhr17.2 °C15.2 °C88 %49.0 W/m²0.0 km/hOst-NO0.0 km/hNorden1016.1 hPa0.0 mm0.0 mm/h
23.07.2018 - 07.35Uhr17.1 °C15.1 °C88 %49.0 W/m²0.0 km/hOst-NO0.0 km/hNorden1016.2 hPa0.0 mm0.0 mm/h